sensor_id;sensor_type;location;lat;lon;timestamp;pressure;altitude;pressure_sealevel;temperature;humidity
10720;BME280;5411;58.386;15.560;2023-12-20T00:02:18;98650.88;;;3.10;100.00
10720;BME280;5411;58.386;15.560;2023-12-20T00:04:46;98653.50;;;3.10;100.00
10720;BME280;5411;58.386;15.560;2023-12-20T00:07:15;98655.34;;;3.09;100.00
10720;BME280;5411;58.386;15.560;2023-12-20T00:09:44;98646.41;;;3.10;100.00
10720;BME280;5411;58.386;15.560;2023-12-20T00:12:14;98642.94;;;3.10;100.00
10720;BME280;5411;58.386;15.560;2023-12-20T00:14:42;98643.56;;;3.12;100.00
10720;BME280;5411;58.386;15.560;2023-12-20T00:17:10;98633.63;;;3.14;100.00
10720;BME280;5411;58.386;15.560;2023-12-20T00:19:41;98630.97;;;3.14;100.00
10720;BME280;5411;58.386;15.560;2023-12-20T00:22:10;98627.31;;;3.15;100.00
10720;BME280;5411;58.386;15.560;2023-12-20T00:24:38;98642.16;;;3.16;100.00
10720;BME280;5411;58.386;15.560;2023-12-20T00:27:07;98634.06;;;3.17;100.00
10720;BME280;5411;58.386;15.560;2023-12-20T00:29:36;98635.47;;;3.20;100.00
10720;BME280;5411;58.386;15.560;2023-12-20T00:32:05;98628.97;;;3.22;100.00
10720;BME280;5411;58.386;15.560;2023-12-20T00:34:36;98631.22;;;3.26;100.00
10720;BME280;5411;58.386;15.560;2023-12-20T00:37:04;98636.13;;;3.29;100.00
10720;BME280;5411;58.386;15.560;2023-12-20T00:39:33;98631.44;;;3.31;100.00
10720;BME280;5411;58.386;15.560;2023-12-20T00:42:01;98634.28;;;3.36;100.00
10720;BME280;5411;58.386;15.560;2023-12-20T00:44:30;98625.97;;;3.39;100.00
10720;BME280;5411;58.386;15.560;2023-12-20T00:46:59;98632.50;;;3.43;100.00
10720;BME280;5411;58.386;15.560;2023-12-20T00:49:28;98635.13;;;3.49;100.00
10720;BME280;5411;58.386;15.560;2023-12-20T00:51:56;98627.84;;;3.58;100.00
10720;BME280;5411;58.386;15.560;2023-12-20T00:54:25;98623.38;;;3.65;100.00
10720;BME280;5411;58.386;15.560;2023-12-20T00:56:58;98617.09;;;3.73;100.00
10720;BME280;5411;58.386;15.560;2023-12-20T00:59:26;98617.09;;;3.79;100.00
10720;BME280;5411;58.386;15.560;2023-12-20T01:01:55;98604.47;;;3.88;100.00
10720;BME280;5411;58.386;15.560;2023-12-20T01:04:45;98601.63;;;3.96;100.00
10720;BME280;5411;58.386;15.560;2023-12-20T01:07:14;98598.78;;;4.04;100.00
10720;BME280;5411;58.386;15.560;2023-12-20T01:09:43;98594.31;;;4.11;100.00
10720;BME280;5411;58.386;15.560;2023-12-20T01:12:11;98595.09;;;4.18;100.00
10720;BME280;5411;58.386;15.560;2023-12-20T01:14:41;98585.53;;;4.24;100.00
10720;BME280;5411;58.386;15.560;2023-12-20T01:17:09;98587.53;;;4.28;100.00
10720;BME280;5411;58.386;15.560;2023-12-20T01:19:38;98584.09;;;4.35;100.00
10720;BME280;5411;58.386;15.560;2023-12-20T01:22:08;98577.38;;;4.39;100.00
10720;BME280;5411;58.386;15.560;2023-12-20T01:24:36;98581.00;;;4.44;100.00
10720;BME280;5411;58.386;15.560;2023-12-20T01:27:05;98584.06;;;4.48;100.00
10720;BME280;5411;58.386;15.560;2023-12-20T01:29:35;98577.31;;;4.52;100.00
10720;BME280;5411;58.386;15.560;2023-12-20T01:32:05;98570.56;;;4.56;100.00
10720;BME280;5411;58.386;15.560;2023-12-20T01:34:34;98574.25;;;4.61;100.00
10720;BME280;5411;58.386;15.560;2023-12-20T01:37:03;98564.84;;;4.65;100.00
10720;BME280;5411;58.386;15.560;2023-12-20T01:39:33;98563.19;;;4.71;100.00
10720;BME280;5411;58.386;15.560;2023-12-20T01:42:02;98556.25;;;4.77;100.00
10720;BME280;5411;58.386;15.560;2023-12-20T01:44:30;98555.03;;;4.79;100.00
10720;BME280;5411;58.386;15.560;2023-12-20T01:46:59;98550.91;;;4.83;100.00
10720;BME280;5411;58.386;15.560;2023-12-20T01:49:28;98543.16;;;4.88;100.00
10720;BME280;5411;58.386;15.560;2023-12-20T01:51:57;98538.25;;;4.92;100.00
10720;BME280;5411;58.386;15.560;2023-12-20T01:54:26;98536.19;;;4.94;100.00
10720;BME280;5411;58.386;15.560;2023-12-20T01:56:56;98534.94;;;4.96;100.00
10720;BME280;5411;58.386;15.560;2023-12-20T01:59:25;98536.97;;;5.01;100.00
10720;BME280;5411;58.386;15.560;2023-12-20T02:01:54;98520.06;;;5.02;100.00
10720;BME280;5411;58.386;15.560;2023-12-20T02:04:23;98513.28;;;5.06;100.00
10720;BME280;5411;58.386;15.560;2023-12-20T02:06:52;98508.59;;;5.08;100.00
10720;BME280;5411;58.386;15.560;2023-12-20T02:09:22;98497.56;;;5.11;100.00
10720;BME280;5411;58.386;15.560;2023-12-20T02:11:50;98496.13;;;5.15;100.00
10720;BME280;5411;58.386;15.560;2023-12-20T02:14:23;98489.59;;;5.18;100.00
10720;BME280;5411;58.386;15.560;2023-12-20T02:16:51;98494.44;;;5.21;100.00
10720;BME280;5411;58.386;15.560;2023-12-20T02:19:20;98480.16;;;5.22;100.00
10720;BME280;5411;58.386;15.560;2023-12-20T02:21:50;98485.25;;;5.23;100.00
10720;BME280;5411;58.386;15.560;2023-12-20T02:24:18;98475.44;;;5.24;100.00
10720;BME280;5411;58.386;15.560;2023-12-20T02:26:47;98473.00;;;5.22;100.00
10720;BME280;5411;58.386;15.560;2023-12-20T02:29:15;98476.69;;;5.21;100.00
10720;BME280;5411;58.386;15.560;2023-12-20T02:31:44;98463.22;;;5.23;100.00
10720;BME280;5411;58.386;15.560;2023-12-20T02:34:15;98457.72;;;5.24;100.00
10720;BME280;5411;58.386;15.560;2023-12-20T02:36:43;98467.09;;;5.27;100.00
10720;BME280;5411;58.386;15.560;2023-12-20T02:39:13;98450.16;;;5.28;100.00
10720;BME280;5411;58.386;15.560;2023-12-20T02:41:48;98453.19;;;5.31;100.00
10720;BME280;5411;58.386;15.560;2023-12-20T02:44:16;98445.00;;;5.33;100.00
10720;BME280;5411;58.386;15.560;2023-12-20T02:46:45;98439.25;;;5.36;100.00
10720;BME280;5411;58.386;15.560;2023-12-20T02:49:13;98430.88;;;5.39;100.00
10720;BME280;5411;58.386;15.560;2023-12-20T02:51:42;98428.63;;;5.43;100.00
10720;BME280;5411;58.386;15.560;2023-12-20T02:54:10;98425.16;;;5.42;100.00
10720;BME280;5411;58.386;15.560;2023-12-20T02:56:40;98417.78;;;5.44;100.00
10720;BME280;5411;58.386;15.560;2023-12-20T02:59:09;98420.22;;;5.46;100.00
10720;BME280;5411;58.386;15.560;2023-12-20T03:01:42;98420.78;;;5.48;100.00
10720;BME280;5411;58.386;15.560;2023-12-20T03:04:12;98425.06;;;5.49;100.00
10720;BME280;5411;58.386;15.560;2023-12-20T03:06:41;98421.81;;;5.47;100.00
10720;BME280;5411;58.386;15.560;2023-12-20T03:09:11;98417.94;;;5.49;100.00
10720;BME280;5411;58.386;15.560;2023-12-20T03:11:40;98411.59;;;5.50;100.00
10720;BME280;5411;58.386;15.560;2023-12-20T03:14:10;98411.38;;;5.52;100.00
10720;BME280;5411;58.386;15.560;2023-12-20T03:16:39;98409.31;;;5.54;100.00
10720;BME280;5411;58.386;15.560;2023-12-20T03:19:07;98414.84;;;5.52;100.00
10720;BME280;5411;58.386;15.560;2023-12-20T03:21:36;98408.13;;;5.50;100.00
10720;BME280;5411;58.386;15.560;2023-12-20T03:24:05;98409.97;;;5.49;100.00
10720;BME280;5411;58.386;15.560;2023-12-20T03:26:33;98397.53;;;5.50;100.00
10720;BME280;5411;58.386;15.560;2023-12-20T03:29:03;98406.28;;;5.50;100.00
10720;BME280;5411;58.386;15.560;2023-12-20T03:31:31;98405.69;;;5.48;100.00
10720;BME280;5411;58.386;15.560;2023-12-20T03:34:00;98410.19;;;5.48;100.00
10720;BME280;5411;58.386;15.560;2023-12-20T03:36:28;98403.84;;;5.49;100.00
10720;BME280;5411;58.386;15.560;2023-12-20T03:38:59;98406.28;;;5.50;100.00
10720;BME280;5411;58.386;15.560;2023-12-20T03:41:28;98408.13;;;5.50;100.00
10720;BME280;5411;58.386;15.560;2023-12-20T03:43:57;98412.19;;;5.52;100.00
10720;BME280;5411;58.386;15.560;2023-12-20T03:46:26;98410.75;;;5.56;100.00
10720;BME280;5411;58.386;15.560;2023-12-20T03:48:55;98406.25;;;5.57;100.00
10720;BME280;5411;58.386;15.560;2023-12-20T03:51:23;98408.91;;;5.57;100.00
10720;BME280;5411;58.386;15.560;2023-12-20T03:53:52;98408.91;;;5.57;100.00
10720;BME280;5411;58.386;15.560;2023-12-20T03:56:20;98397.91;;;5.53;100.00
10720;BME280;5411;58.386;15.560;2023-12-20T03:58:50;98395.25;;;5.53;100.00
10720;BME280;5411;58.386;15.560;2023-12-20T04:01:19;98388.13;;;5.54;100.00
10720;BME280;5411;58.386;15.560;2023-12-20T04:03:58;98381.19;;;5.53;100.00
10720;BME280;5411;58.386;15.560;2023-12-20T04:06:27;98379.56;;;5.52;100.00
10720;BME280;5411;58.386;15.560;2023-12-20T04:08:58;98376.09;;;5.51;100.00
10720;BME280;5411;58.386;15.560;2023-12-20T04:11:27;98364.69;;;5.51;100.00
10720;BME280;5411;58.386;15.560;2023-12-20T04:13:55;98365.28;;;5.53;100.00
10720;BME280;5411;58.386;15.560;2023-12-20T04:16:26;98361.81;;;5.52;100.00
10720;BME280;5411;58.386;15.560;2023-12-20T04:18:56;98362.84;;;5.51;100.00
10720;BME280;5411;58.386;15.560;2023-12-20T04:21:25;98360.56;;;5.55;100.00
10720;BME280;5411;58.386;15.560;2023-12-20T04:23:53;98351.78;;;5.54;100.00
10720;BME280;5411;58.386;15.560;2023-12-20T04:26:25;98342.22;;;5.53;100.00
10720;BME280;5411;58.386;15.560;2023-12-20T04:28:53;98337.94;;;5.52;100.00
10720;BME280;5411;58.386;15.560;2023-12-20T04:31:22;98336.31;;;5.51;100.00
10720;BME280;5411;58.386;15.560;2023-12-20T04:33:53;98342.44;;;5.52;100.00
10720;BME280;5411;58.386;15.560;2023-12-20T04:36:23;98337.72;;;5.54;100.00
10720;BME280;5411;58.386;15.560;2023-12-20T04:38:55;98329.53;;;5.55;100.00
10720;BME280;5411;58.386;15.560;2023-12-20T04:41:23;98337.06;;;5.58;100.00
10720;BME280;5411;58.386;15.560;2023-12-20T04:43:51;98337.88;;;5.59;100.00
10720;BME280;5411;58.386;15.560;2023-12-20T04:46:20;98338.44;;;5.61;100.00
10720;BME280;5411;58.386;15.560;2023-12-20T04:48:48;98328.31;;;5.58;100.00
10720;BME280;5411;58.386;15.560;2023-12-20T04:51:16;98335.88;;;5.54;100.00
10720;BME280;5411;58.386;15.560;2023-12-20T04:53:46;98334.03;;;5.55;100.00
10720;BME280;5411;58.386;15.560;2023-12-20T04:56:15;98319.97;;;5.54;100.00
10720;BME280;5411;58.386;15.560;2023-12-20T04:58:43;98321.59;;;5.55;100.00
10720;BME280;5411;58.386;15.560;2023-12-20T05:01:15;98320.78;;;5.55;100.00
10720;BME280;5411;58.386;15.560;2023-12-20T05:03:44;98319.16;;;5.54;100.00
10720;BME280;5411;58.386;15.560;2023-12-20T05:06:14;98312.00;;;5.54;100.00
10720;BME280;5411;58.386;15.560;2023-12-20T05:08:43;98305.69;;;5.55;100.00
10720;BME280;5411;58.386;15.560;2023-12-20T05:11:13;98306.50;;;5.56;100.00
10720;BME280;5411;58.386;15.560;2023-12-20T05:13:42;98312.81;;;5.55;100.00
10720;BME280;5411;58.386;15.560;2023-12-20T05:16:16;98308.34;;;5.55;100.00
10720;BME280;5411;58.386;15.560;2023-12-20T05:18:47;98306.72;;;5.54;100.00
10720;BME280;5411;58.386;15.560;2023-12-20T05:21:19;98300.00;;;5.52;100.00
10720;BME280;5411;58.386;15.560;2023-12-20T05:23:47;98296.97;;;5.48;100.00
10720;BME280;5411;58.386;15.560;2023-12-20T05:26:17;98299.63;;;5.48;100.00
10720;BME280;5411;58.386;15.560;2023-12-20T05:28:46;98292.69;;;5.47;100.00
10720;BME280;5411;58.386;15.560;2023-12-20T05:31:14;98295.34;;;5.47;100.00
10720;BME280;5411;58.386;15.560;2023-12-20T05:33:43;98291.31;;;5.45;100.00
10720;BME280;5411;58.386;15.560;2023-12-20T05:36:11;98279.91;;;5.44;100.00
10720;BME280;5411;58.386;15.560;2023-12-20T05:38:42;98280.47;;;5.46;100.00
10720;BME280;5411;58.386;15.560;2023-12-20T05:41:10;98271.13;;;5.44;100.00
10720;BME280;5411;58.386;15.560;2023-12-20T05:43:40;98264.44;;;5.41;100.00
10720;BME280;5411;58.386;15.560;2023-12-20T05:46:10;98259.34;;;5.40;100.00
10720;BME280;5411;58.386;15.560;2023-12-20T05:48:38;98255.28;;;5.37;100.00
10720;BME280;5411;58.386;15.560;2023-12-20T05:51:07;98256.09;;;5.37;100.00
10720;BME280;5411;58.386;15.560;2023-12-20T05:53:38;98252.41;;;5.38;100.00
10720;BME280;5411;58.386;15.560;2023-12-20T05:56:09;98250.34;;;5.41;100.00
10720;BME280;5411;58.386;15.560;2023-12-20T05:58:40;98246.69;;;5.42;100.00
10720;BME280;5411;58.386;15.560;2023-12-20T06:01:14;98230.78;;;5.42;100.00
10720;BME280;5411;58.386;15.560;2023-12-20T06:03:44;98231.34;;;5.44;100.00
10720;BME280;5411;58.386;15.560;2023-12-20T06:06:14;98231.34;;;5.44;100.00
10720;BME280;5411;58.386;15.560;2023-12-20T06:08:43;98221.56;;;5.44;100.00
10720;BME280;5411;58.386;15.560;2023-12-20T06:11:11;98219.47;;;5.46;100.00
10720;BME280;5411;58.386;15.560;2023-12-20T06:13:42;98209.94;;;5.45;100.00
10720;BME280;5411;58.386;15.560;2023-12-20T06:16:10;98200.34;;;5.44;100.00
10720;BME280;5411;58.386;15.560;2023-12-20T06:18:38;98189.97;;;5.43;100.00
10720;BME280;5411;58.386;15.560;2023-12-20T06:21:07;98190.19;;;5.41;100.00
10720;BME280;5411;58.386;15.560;2023-12-20T06:23:39;98186.13;;;5.38;100.00
10720;BME280;5411;58.386;15.560;2023-12-20T06:26:08;98177.22;;;5.33;100.00
10720;BME280;5411;58.386;15.560;2023-12-20T06:28:36;98172.97;;;5.32;100.00
10720;BME280;5411;58.386;15.560;2023-12-20T06:31:09;98170.53;;;5.30;100.00
10720;BME280;5411;58.386;15.560;2023-12-20T06:33:38;98155.88;;;5.28;100.00
10720;BME280;5411;58.386;15.560;2023-12-20T06:36:11;98158.38;;;5.23;100.00
10720;BME280;5411;58.386;15.560;2023-12-20T06:38:42;98158.59;;;5.21;100.00
10720;BME280;5411;58.386;15.560;2023-12-20T06:41:13;98152.75;;;5.19;100.00
10720;BME280;5411;58.386;15.560;2023-12-20T06:43:42;98143.97;;;5.19;100.00
10720;BME280;5411;58.386;15.560;2023-12-20T06:46:18;98153.19;;;5.16;100.00
10720;BME280;5411;58.386;15.560;2023-12-20T06:48:46;98142.81;;;5.15;100.00
10720;BME280;5411;58.386;15.560;2023-12-20T06:51:16;98150.16;;;5.13;100.00
10720;BME280;5411;58.386;15.560;2023-12-20T06:53:47;98145.28;;;5.10;100.00
10720;BME280;5411;58.386;15.560;2023-12-20T06:56:15;98139.19;;;5.09;100.00
10720;BME280;5411;58.386;15.560;2023-12-20T06:58:45;98140.22;;;5.08;100.00
10720;BME280;5411;58.386;15.560;2023-12-20T07:01:15;98142.66;;;5.10;100.00
10720;BME280;5411;58.386;15.560;2023-12-20T07:03:46;98140.00;;;5.10;100.00
10720;BME280;5411;58.386;15.560;2023-12-20T07:06:16;98131.03;;;5.11;100.00
10720;BME280;5411;58.386;15.560;2023-12-20T07:08:44;98141.63;;;5.11;100.00
10720;BME280;5411;58.386;15.560;2023-12-20T07:11:13;98137.56;;;5.08;100.00
10720;BME280;5411;58.386;15.560;2023-12-20T07:13:44;98127.78;;;5.09;100.00
10720;BME280;5411;58.386;15.560;2023-12-20T07:16:12;98136.75;;;5.08;100.00
10720;BME280;5411;58.386;15.560;2023-12-20T07:18:41;98128.69;;;5.03;100.00
10720;BME280;5411;58.386;15.560;2023-12-20T07:21:11;98122.78;;;5.00;100.00
10720;BME280;5411;58.386;15.560;2023-12-20T07:23:40;98118.75;;;4.98;100.00
10720;BME280;5411;58.386;15.560;2023-12-20T07:26:08;98125.06;;;4.97;100.00
10720;BME280;5411;58.386;15.560;2023-12-20T07:28:37;98118.38;;;4.94;100.00
10720;BME280;5411;58.386;15.560;2023-12-20T07:31:07;98128.16;;;4.94;100.00
10720;BME280;5411;58.386;15.560;2023-12-20T07:33:36;98122.50;;;4.90;100.00
10720;BME280;5411;58.386;15.560;2023-12-20T07:36:06;98120.31;;;4.87;100.00
10720;BME280;5411;58.386;15.560;2023-12-20T07:38:36;98118.47;;;4.88;100.00
10720;BME280;5411;58.386;15.560;2023-12-20T07:41:05;98115.22;;;4.86;100.00
10720;BME280;5411;58.386;15.560;2023-12-20T07:43:33;98111.16;;;4.83;100.00
10720;BME280;5411;58.386;15.560;2023-12-20T07:46:04;98107.38;;;4.79;100.00
10720;BME280;5411;58.386;15.560;2023-12-20T07:48:37;98121.84;;;4.77;100.00
10720;BME280;5411;58.386;15.560;2023-12-20T07:51:08;98115.97;;;4.75;100.00
10720;BME280;5411;58.386;15.560;2023-12-20T07:53:39;98119.41;;;4.75;100.00
10720;BME280;5411;58.386;15.560;2023-12-20T07:56:17;98115.16;;;4.74;100.00
10720;BME280;5411;58.386;15.560;2023-12-20T07:58:48;98112.72;;;4.73;100.00
10720;BME280;5411;58.386;15.560;2023-12-20T08:01:20;98111.31;;;4.70;100.00
10720;BME280;5411;58.386;15.560;2023-12-20T08:03:49;98104.41;;;4.69;100.00
10720;BME280;5411;58.386;15.560;2023-12-20T08:06:21;98104.19;;;4.71;100.00
10720;BME280;5411;58.386;15.560;2023-12-20T08:08:53;98103.38;;;4.70;100.00
10720;BME280;5411;58.386;15.560;2023-12-20T08:11:32;98097.06;;;4.71;100.00
10720;BME280;5411;58.386;15.560;2023-12-20T08:14:00;98090.72;;;4.72;100.00
10720;BME280;5411;58.386;15.560;2023-12-20T08:16:31;98082.56;;;4.74;100.00
10720;BME280;5411;58.386;15.560;2023-12-20T08:18:59;98078.06;;;4.74;100.00
10720;BME280;5411;58.386;15.560;2023-12-20T08:21:28;98078.66;;;4.76;100.00
10720;BME280;5411;58.386;15.560;2023-12-20T08:23:59;98083.28;;;4.81;100.00
10720;BME280;5411;58.386;15.560;2023-12-20T08:26:27;98066.94;;;4.84;100.00
10720;BME280;5411;58.386;15.560;2023-12-20T08:28:56;98065.69;;;4.86;100.00
10720;BME280;5411;58.386;15.560;2023-12-20T08:31:27;98063.06;;;4.86;100.00
10720;BME280;5411;58.386;15.560;2023-12-20T08:33:56;98058.78;;;4.85;100.00
10720;BME280;5411;58.386;15.560;2023-12-20T08:36:28;98063.63;;;4.88;100.00
10720;BME280;5411;58.386;15.560;2023-12-20T08:38:58;98063.19;;;4.91;100.00
10720;BME280;5411;58.386;15.560;2023-12-20T08:41:29;98063.53;;;4.95;100.00
10720;BME280;5411;58.386;15.560;2023-12-20T08:43:57;98049.47;;;4.94;100.00
10720;BME280;5411;58.386;15.560;2023-12-20T08:46:28;98054.78;;;4.94;100.00
10720;BME280;5411;58.386;15.560;2023-12-20T08:48:57;98056.41;;;4.95;100.00
10720;BME280;5411;58.386;15.560;2023-12-20T08:51:28;98053.75;;;4.95;100.00
10720;BME280;5411;58.386;15.560;2023-12-20T08:53:56;98053.53;;;4.97;100.00
10720;BME280;5411;58.386;15.560;2023-12-20T08:56:25;98056.19;;;4.97;100.00
10720;BME280;5411;58.386;15.560;2023-12-20T08:58:54;98054.94;;;4.99;100.00
10720;BME280;5411;58.386;15.560;2023-12-20T09:01:25;98044.91;;;5.01;100.00
10720;BME280;5411;58.386;15.560;2023-12-20T09:03:56;98036.75;;;5.03;100.00
10720;BME280;5411;58.386;15.560;2023-12-20T09:06:34;98039.50;;;5.08;100.00
10720;BME280;5411;58.386;15.560;2023-12-20T09:09:03;98041.94;;;5.10;100.00
10720;BME280;5411;58.386;15.560;2023-12-20T09:11:31;98039.06;;;5.11;100.00
10720;BME280;5411;58.386;15.560;2023-12-20T09:14:01;98034.94;;;5.15;100.00
10720;BME280;5411;58.386;15.560;2023-12-20T09:16:30;98037.97;;;5.19;100.00
10720;BME280;5411;58.386;15.560;2023-12-20T09:18:59;98028.16;;;5.19;100.00
10720;BME280;5411;58.386;15.560;2023-12-20T09:21:28;98027.91;;;5.21;100.00
10720;BME280;5411;58.386;15.560;2023-12-20T09:23:56;98026.66;;;5.23;100.00
10720;BME280;5411;58.386;15.560;2023-12-20T09:26:25;98029.53;;;5.22;100.00
10720;BME280;5411;58.386;15.560;2023-12-20T09:28:56;98029.53;;;5.22;100.00
10720;BME280;5411;58.386;15.560;2023-12-20T09:31:26;98023.78;;;5.25;100.00
10720;BME280;5411;58.386;15.560;2023-12-20T09:33:54;98022.97;;;5.24;100.00
10720;BME280;5411;58.386;15.560;2023-12-20T09:36:23;98022.97;;;5.24;100.00
10720;BME280;5411;58.386;15.560;2023-12-20T09:38:51;98027.63;;;5.29;100.00
10720;BME280;5411;58.386;15.560;2023-12-20T09:41:20;98030.84;;;5.31;100.00
10720;BME280;5411;58.386;15.560;2023-12-20T09:43:52;98012.06;;;5.32;100.00
10720;BME280;5411;58.386;15.560;2023-12-20T09:46:28;98011.81;;;5.34;100.00
10720;BME280;5411;58.386;15.560;2023-12-20T09:48:59;98001.81;;;5.36;100.00
10720;BME280;5411;58.386;15.560;2023-12-20T09:51:29;97997.66;;;5.40;100.00
10720;BME280;5411;58.386;15.560;2023-12-20T09:53:59;97997.66;;;5.40;100.00
10720;BME280;5411;58.386;15.560;2023-12-20T09:56:29;97986.84;;;5.42;100.00
10720;BME280;5411;58.386;15.560;2023-12-20T09:58:58;97982.44;;;5.47;100.00
10720;BME280;5411;58.386;15.560;2023-12-20T10:01:29;97985.47;;;5.51;100.00
10720;BME280;5411;58.386;15.560;2023-12-20T10:04:00;97982.81;;;5.51;100.00
10720;BME280;5411;58.386;15.560;2023-12-20T10:06:34;97983.84;;;5.50;100.00
10720;BME280;5411;58.386;15.560;2023-12-20T10:09:02;97977.06;;;5.54;100.00
10720;BME280;5411;58.386;15.560;2023-12-20T10:11:32;97984.31;;;5.58;100.00
10720;BME280;5411;58.386;15.560;2023-12-20T10:14:00;97979.25;;;5.57;100.00
10720;BME280;5411;58.386;15.560;2023-12-20T10:16:31;97968.41;;;5.58;100.00
10720;BME280;5411;58.386;15.560;2023-12-20T10:19:00;97965.06;;;5.63;100.00
10720;BME280;5411;58.386;15.560;2023-12-20T10:21:29;97964.59;;;5.66;100.00
10720;BME280;5411;58.386;15.560;2023-12-20T10:23:58;97959.06;;;5.67;100.00
10720;BME280;5411;58.386;15.560;2023-12-20T10:26:29;97957.44;;;5.66;100.00
10720;BME280;5411;58.386;15.560;2023-12-20T10:29:01;97950.06;;;5.68;100.00
10720;BME280;5411;58.386;15.560;2023-12-20T10:31:33;97940.28;;;5.69;100.00
10720;BME280;5411;58.386;15.560;2023-12-20T10:34:03;97932.91;;;5.71;100.00
10720;BME280;5411;58.386;15.560;2023-12-20T10:36:32;97935.88;;;5.74;100.00
10720;BME280;5411;58.386;15.560;2023-12-20T10:39:05;97932.19;;;5.76;100.00
10720;BME280;5411;58.386;15.560;2023-12-20T10:41:37;97924.00;;;5.77;100.00
10720;BME280;5411;58.386;15.560;2023-12-20T10:44:11;97930.47;;;5.81;100.00
10720;BME280;5411;58.386;15.560;2023-12-20T10:46:45;97918.00;;;5.82;100.00
10720;BME280;5411;58.386;15.560;2023-12-20T10:49:20;97920.66;;;5.82;100.00
10720;BME280;5411;58.386;15.560;2023-12-20T10:51:53;97920.53;;;5.88;100.00
10720;BME280;5411;58.386;15.560;2023-12-20T10:54:24;97922.06;;;5.96;100.00
10720;BME280;5411;58.386;15.560;2023-12-20T10:56:52;97909.09;;;5.99;100.00
10720;BME280;5411;58.386;15.560;2023-12-20T10:59:22;97913.47;;;6.05;100.00
10720;BME280;5411;58.386;15.560;2023-12-20T11:01:54;97917.28;;;6.10;100.00
10720;BME280;5411;58.386;15.560;2023-12-20T11:04:28;97912.78;;;6.10;100.00
10720;BME280;5411;58.386;15.560;2023-12-20T11:07:08;97918.09;;;6.10;100.00
10720;BME280;5411;58.386;15.560;2023-12-20T11:09:52;97905.06;;;6.08;100.00
10720;BME280;5411;58.386;15.560;2023-12-20T11:12:35;97903.22;;;6.09;100.00
10720;BME280;5411;58.386;15.560;2023-12-20T11:15:07;97905.63;;;6.11;100.00
10720;BME280;5411;58.386;15.560;2023-12-20T11:17:39;97906.19;;;6.13;100.00
10720;BME280;5411;58.386;15.560;2023-12-20T11:20:09;97905.50;;;6.17;100.00
10720;BME280;5411;58.386;15.560;2023-12-20T11:22:52;97900.75;;;6.19;100.00
10720;BME280;5411;58.386;15.560;2023-12-20T11:25:21;97899.13;;;6.18;100.00
10720;BME280;5411;58.386;15.560;2023-12-20T11:28:08;97895.69;;;6.18;100.00
10720;BME280;5411;58.386;15.560;2023-12-20T11:30:41;97894.28;;;6.15;100.00
10720;BME280;5411;58.386;15.560;2023-12-20T11:33:13;97889.00;;;6.15;100.00
10720;BME280;5411;58.386;15.560;2023-12-20T11:35:41;97891.56;;;6.10;100.00
10720;BME280;5411;58.386;15.560;2023-12-20T11:38:10;97889.47;;;6.00;100.00
10720;BME280;5411;58.386;15.560;2023-12-20T11:40:38;97898.47;;;5.88;100.00
10720;BME280;5411;58.386;15.560;2023-12-20T11:43:09;97889.41;;;5.72;100.00
10720;BME280;5411;58.386;15.560;2023-12-20T11:45:38;97885.41;;;5.58;100.00
10720;BME280;5411;58.386;15.560;2023-12-20T11:48:18;97889.09;;;5.45;100.00
10720;BME280;5411;58.386;15.560;2023-12-20T11:50:47;97884.25;;;5.30;100.00
10720;BME280;5411;58.386;15.560;2023-12-20T11:53:18;97877.88;;;5.20;100.00
10720;BME280;5411;58.386;15.560;2023-12-20T11:55:48;97877.41;;;5.11;100.00
10720;BME280;5411;58.386;15.560;2023-12-20T11:58:16;97871.22;;;5.06;100.00
10720;BME280;5411;58.386;15.560;2023-12-20T12:00:45;97869.81;;;5.03;100.00
10720;BME280;5411;58.386;15.560;2023-12-20T12:03:15;97876.16;;;5.02;100.00
10720;BME280;5411;58.386;15.560;2023-12-20T12:05:48;97864.97;;;5.00;100.00
10720;BME280;5411;58.386;15.560;2023-12-20T12:08:17;97862.91;;;5.02;100.00
10720;BME280;5411;58.386;15.560;2023-12-20T12:10:45;97866.47;;;5.08;100.00
10720;BME280;5411;58.386;15.560;2023-12-20T12:13:14;97854.59;;;5.10;100.00
10720;BME280;5411;58.386;15.560;2023-12-20T12:15:42;97849.31;;;5.10;100.00
10720;BME280;5411;58.386;15.560;2023-12-20T12:18:15;97842.38;;;5.09;100.00
10720;BME280;5411;58.386;15.560;2023-12-20T12:20:44;97842.16;;;5.11;100.00
10720;BME280;5411;58.386;15.560;2023-12-20T12:23:22;97841.84;;;5.19;100.00
10720;BME280;5411;58.386;15.560;2023-12-20T12:25:51;97841.72;;;5.25;100.00
10720;BME280;5411;58.386;15.560;2023-12-20T12:28:25;97835.47;;;5.20;100.00
10720;BME280;5411;58.386;15.560;2023-12-20T12:30:59;97840.09;;;5.13;100.00
10720;BME280;5411;58.386;15.560;2023-12-20T12:33:28;97845.03;;;5.09;100.00
10720;BME280;5411;58.386;15.560;2023-12-20T12:35:57;97841.81;;;5.07;100.00
10720;BME280;5411;58.386;15.560;2023-12-20T12:38:30;97844.94;;;5.04;100.00
10720;BME280;5411;58.386;15.560;2023-12-20T12:40:59;97843.19;;;4.98;100.00
10720;BME280;5411;58.386;15.560;2023-12-20T12:43:28;97834.34;;;4.92;100.00
10720;BME280;5411;58.386;15.560;2023-12-20T12:45:57;97828.91;;;4.87;100.00
10720;BME280;5411;58.386;15.560;2023-12-20T12:48:28;97828.31;;;4.85;100.00
10720;BME280;5411;58.386;15.560;2023-12-20T12:50:56;97834.44;;;4.86;100.00
10720;BME280;5411;58.386;15.560;2023-12-20T12:53:26;97831.78;;;4.86;100.00
10720;BME280;5411;58.386;15.560;2023-12-20T12:55:56;97823.03;;;4.85;100.00
10720;BME280;5411;58.386;15.560;2023-12-20T12:58:24;97823.84;;;4.86;100.00
10720;BME280;5411;58.386;15.560;2023-12-20T13:00:53;97827.28;;;4.86;100.00
10720;BME280;5411;58.386;15.560;2023-12-20T13:03:25;97824.66;;;4.86;100.00
10720;BME280;5411;58.386;15.560;2023-12-20T13:05:53;97825.91;;;4.84;100.00
10720;BME280;5411;58.386;15.560;2023-12-20T13:08:24;97829.25;;;4.79;100.00
10720;BME280;5411;58.386;15.560;2023-12-20T13:10:52;97832.56;;;4.75;100.00
10720;BME280;5411;58.386;15.560;2023-12-20T13:13:23;97833.25;;;4.70;100.00
10720;BME280;5411;58.386;15.560;2023-12-20T13:15:52;97845.00;;;4.62;100.00